sensor_id;sensor_type;location;lat;lon;timestamp;temperature;humidity
28845;DHT22;15976;47.938;7.758;2023-06-14T00:00:05;20.20;30.20
28845;DHT22;15976;47.938;7.758;2023-06-14T00:02:39;20.20;30.20
28845;DHT22;15976;47.938;7.758;2023-06-14T00:05:21;20.10;30.00
28845;DHT22;15976;47.938;7.758;2023-06-14T00:07:58;20.00;30.10
28845;DHT22;15976;47.938;7.758;2023-06-14T00:11:05;20.00;30.70
28845;DHT22;15976;47.938;7.758;2023-06-14T00:13:42;19.90;30.90
28845;DHT22;15976;47.938;7.758;2023-06-14T00:16:35;19.90;31.20
28845;DHT22;15976;47.938;7.758;2023-06-14T00:19:08;19.80;31.10
28845;DHT22;15976;47.938;7.758;2023-06-14T00:21:42;19.70;31.20
28845;DHT22;15976;47.938;7.758;2023-06-14T00:24:23;19.70;31.30
28845;DHT22;15976;47.938;7.758;2023-06-14T00:26:59;19.60;31.70
28845;DHT22;15976;47.938;7.758;2023-06-14T00:29:48;19.60;31.70
28845;DHT22;15976;47.938;7.758;2023-06-14T00:32:28;19.50;31.70
28845;DHT22;15976;47.938;7.758;2023-06-14T00:35:02;19.50;31.70
28845;DHT22;15976;47.938;7.758;2023-06-14T00:37:38;19.40;31.80
28845;DHT22;15976;47.938;7.758;2023-06-14T00:40:15;19.40;32.10
28845;DHT22;15976;47.938;7.758;2023-06-14T00:42:59;19.40;32.20
28845;DHT22;15976;47.938;7.758;2023-06-14T00:45:41;19.40;32.30
28845;DHT22;15976;47.938;7.758;2023-06-14T00:48:20;19.30;32.40
28845;DHT22;15976;47.938;7.758;2023-06-14T00:51:13;19.30;32.50
28845;DHT22;15976;47.938;7.758;2023-06-14T00:53:56;19.20;32.70
28845;DHT22;15976;47.938;7.758;2023-06-14T00:56:38;19.20;32.80
28845;DHT22;15976;47.938;7.758;2023-06-14T00:59:14;19.20;32.70
28845;DHT22;15976;47.938;7.758;2023-06-14T01:01:50;19.10;32.90
28845;DHT22;15976;47.938;7.758;2023-06-14T01:04:28;19.10;34.00
28845;DHT22;15976;47.938;7.758;2023-06-14T01:07:25;19.10;33.90
28845;DHT22;15976;47.938;7.758;2023-06-14T01:13:16;19.00;34.70
28845;DHT22;15976;47.938;7.758;2023-06-14T01:16:12;18.90;34.70
28845;DHT22;15976;47.938;7.758;2023-06-14T01:18:46;18.90;34.80
28845;DHT22;15976;47.938;7.758;2023-06-14T01:21:27;18.90;34.90
28845;DHT22;15976;47.938;7.758;2023-06-14T01:24:07;18.80;35.00
28845;DHT22;15976;47.938;7.758;2023-06-14T01:26:44;18.80;34.80
28845;DHT22;15976;47.938;7.758;2023-06-14T01:29:21;18.80;34.30
28845;DHT22;15976;47.938;7.758;2023-06-14T01:31:55;18.80;34.00
28845;DHT22;15976;47.938;7.758;2023-06-14T01:34:36;18.70;33.80
28845;DHT22;15976;47.938;7.758;2023-06-14T01:37:11;18.70;34.00
28845;DHT22;15976;47.938;7.758;2023-06-14T01:39:48;18.70;34.80
28845;DHT22;15976;47.938;7.758;2023-06-14T01:42:25;18.70;35.10
28845;DHT22;15976;47.938;7.758;2023-06-14T01:45:03;18.60;35.50
28845;DHT22;15976;47.938;7.758;2023-06-14T01:47:39;18.50;35.70
28845;DHT22;15976;47.938;7.758;2023-06-14T01:50:24;18.50;36.00
28845;DHT22;15976;47.938;7.758;2023-06-14T01:53:01;18.50;36.20
28845;DHT22;15976;47.938;7.758;2023-06-14T01:56:01;18.40;36.60
28845;DHT22;15976;47.938;7.758;2023-06-14T01:58:34;18.30;36.80
28845;DHT22;15976;47.938;7.758;2023-06-14T02:01:18;18.20;36.90
28845;DHT22;15976;47.938;7.758;2023-06-14T02:03:57;18.20;37.30
28845;DHT22;15976;47.938;7.758;2023-06-14T02:06:33;18.10;37.50
28845;DHT22;15976;47.938;7.758;2023-06-14T02:09:04;18.10;37.90
28845;DHT22;15976;47.938;7.758;2023-06-14T02:11:44;18.10;38.00
28845;DHT22;15976;47.938;7.758;2023-06-14T02:14:22;18.10;38.30
28845;DHT22;15976;47.938;7.758;2023-06-14T02:17:01;18.00;38.40
28845;DHT22;15976;47.938;7.758;2023-06-14T02:19:51;18.00;38.70
28845;DHT22;15976;47.938;7.758;2023-06-14T02:22:24;17.90;38.80
28845;DHT22;15976;47.938;7.758;2023-06-14T02:25:01;17.90;38.90
28845;DHT22;15976;47.938;7.758;2023-06-14T02:27:43;17.80;39.00
28845;DHT22;15976;47.938;7.758;2023-06-14T02:30:34;17.80;39.20
28845;DHT22;15976;47.938;7.758;2023-06-14T02:33:11;17.70;39.30
28845;DHT22;15976;47.938;7.758;2023-06-14T02:36:01;17.70;39.40
28845;DHT22;15976;47.938;7.758;2023-06-14T02:38:37;17.60;39.70
28845;DHT22;15976;47.938;7.758;2023-06-14T02:41:13;17.60;39.80
28845;DHT22;15976;47.938;7.758;2023-06-14T02:43:47;17.50;40.00
28845;DHT22;15976;47.938;7.758;2023-06-14T02:46:26;17.50;40.20
28845;DHT22;15976;47.938;7.758;2023-06-14T02:49:01;17.40;40.40
28845;DHT22;15976;47.938;7.758;2023-06-14T02:51:37;17.30;40.50
28845;DHT22;15976;47.938;7.758;2023-06-14T02:54:15;17.20;41.20
28845;DHT22;15976;47.938;7.758;2023-06-14T02:57:08;17.20;40.80
28845;DHT22;15976;47.938;7.758;2023-06-14T02:59:47;17.10;40.90
28845;DHT22;15976;47.938;7.758;2023-06-14T03:02:26;17.10;41.10
28845;DHT22;15976;47.938;7.758;2023-06-14T03:05:04;17.10;41.30
28845;DHT22;15976;47.938;7.758;2023-06-14T03:07:39;17.00;41.40
28845;DHT22;15976;47.938;7.758;2023-06-14T03:10:21;17.00;41.50
28845;DHT22;15976;47.938;7.758;2023-06-14T03:13:15;17.00;41.60
28845;DHT22;15976;47.938;7.758;2023-06-14T03:16:10;16.90;41.70
28845;DHT22;15976;47.938;7.758;2023-06-14T03:18:46;16.80;41.90
28845;DHT22;15976;47.938;7.758;2023-06-14T03:21:18;16.70;42.00
28845;DHT22;15976;47.938;7.758;2023-06-14T03:24:13;16.70;42.20
28845;DHT22;15976;47.938;7.758;2023-06-14T03:26:56;16.60;42.30
28845;DHT22;15976;47.938;7.758;2023-06-14T03:29:34;16.60;42.50
28845;DHT22;15976;47.938;7.758;2023-06-14T03:32:28;16.60;42.80
28845;DHT22;15976;47.938;7.758;2023-06-14T03:35:04;16.60;43.00
28845;DHT22;15976;47.938;7.758;2023-06-14T03:37:49;16.50;43.10
28845;DHT22;15976;47.938;7.758;2023-06-14T03:40:33;16.50;43.30
28845;DHT22;15976;47.938;7.758;2023-06-14T03:43:31;16.50;43.30
28845;DHT22;15976;47.938;7.758;2023-06-14T03:46:25;16.50;44.00
28845;DHT22;15976;47.938;7.758;2023-06-14T03:49:07;16.40;43.30
28845;DHT22;15976;47.938;7.758;2023-06-14T03:51:52;16.40;43.40
28845;DHT22;15976;47.938;7.758;2023-06-14T03:54:29;16.40;43.50
28845;DHT22;15976;47.938;7.758;2023-06-14T03:57:16;16.40;43.60
28845;DHT22;15976;47.938;7.758;2023-06-14T03:59:59;16.40;43.70
28845;DHT22;15976;47.938;7.758;2023-06-14T04:02:42;16.40;44.00
28845;DHT22;15976;47.938;7.758;2023-06-14T04:05:21;16.40;44.10
28845;DHT22;15976;47.938;7.758;2023-06-14T04:08:07;16.30;44.10
28845;DHT22;15976;47.938;7.758;2023-06-14T04:10:52;16.30;44.40
28845;DHT22;15976;47.938;7.758;2023-06-14T04:13:25;16.20;44.40
28845;DHT22;15976;47.938;7.758;2023-06-14T04:16:08;16.30;45.10
28845;DHT22;15976;47.938;7.758;2023-06-14T04:18:54;16.20;44.70
28845;DHT22;15976;47.938;7.758;2023-06-14T04:21:25;16.20;44.70
28845;DHT22;15976;47.938;7.758;2023-06-14T04:24:03;16.30;44.90
28845;DHT22;15976;47.938;7.758;2023-06-14T04:26:43;16.20;44.80
28845;DHT22;15976;47.938;7.758;2023-06-14T04:29:35;16.20;44.80
28845;DHT22;15976;47.938;7.758;2023-06-14T04:32:13;16.20;45.00
28845;DHT22;15976;47.938;7.758;2023-06-14T04:34:47;16.20;45.30
28845;DHT22;15976;47.938;7.758;2023-06-14T04:37:25;16.10;45.40
28845;DHT22;15976;47.938;7.758;2023-06-14T04:42:52;16.20;45.80
28845;DHT22;15976;47.938;7.758;2023-06-14T04:45:41;16.20;45.90
28845;DHT22;15976;47.938;7.758;2023-06-14T04:48:30;16.20;45.80
28845;DHT22;15976;47.938;7.758;2023-06-14T04:50:59;16.20;46.00
28845;DHT22;15976;47.938;7.758;2023-06-14T04:53:46;16.20;46.30
28845;DHT22;15976;47.938;7.758;2023-06-14T04:56:30;16.20;46.80
28845;DHT22;15976;47.938;7.758;2023-06-14T04:59:10;16.20;46.60
28845;DHT22;15976;47.938;7.758;2023-06-14T05:02:21;16.30;46.40
28845;DHT22;15976;47.938;7.758;2023-06-14T05:05:08;16.30;46.30
28845;DHT22;15976;47.938;7.758;2023-06-14T05:07:50;16.40;46.00
28845;DHT22;15976;47.938;7.758;2023-06-14T05:10:30;16.50;45.80
28845;DHT22;15976;47.938;7.758;2023-06-14T05:13:28;16.60;45.70
28845;DHT22;15976;47.938;7.758;2023-06-14T05:16:09;16.70;45.60
28845;DHT22;15976;47.938;7.758;2023-06-14T05:18:48;16.80;45.50
28845;DHT22;15976;47.938;7.758;2023-06-14T05:21:24;16.90;45.50
28845;DHT22;15976;47.938;7.758;2023-06-14T05:24:21;17.00;45.20
28845;DHT22;15976;47.938;7.758;2023-06-14T05:27:30;17.10;45.40
28845;DHT22;15976;47.938;7.758;2023-06-14T05:30:02;17.20;45.00
28845;DHT22;15976;47.938;7.758;2023-06-14T05:32:39;17.30;44.60
28845;DHT22;15976;47.938;7.758;2023-06-14T05:35:16;17.40;44.40
28845;DHT22;15976;47.938;7.758;2023-06-14T05:37:52;17.50;44.20
28845;DHT22;15976;47.938;7.758;2023-06-14T05:40:33;17.50;43.90
28845;DHT22;15976;47.938;7.758;2023-06-14T05:43:29;17.60;43.70
28845;DHT22;15976;47.938;7.758;2023-06-14T05:46:07;17.70;43.60
28845;DHT22;15976;47.938;7.758;2023-06-14T05:48:52;17.80;43.60
28845;DHT22;15976;47.938;7.758;2023-06-14T05:51:33;17.90;43.20
28845;DHT22;15976;47.938;7.758;2023-06-14T05:54:15;18.00;43.70
28845;DHT22;15976;47.938;7.758;2023-06-14T05:56:53;18.10;43.00
28845;DHT22;15976;47.938;7.758;2023-06-14T05:59:29;18.30;42.60
28845;DHT22;15976;47.938;7.758;2023-06-14T06:02:12;18.40;42.30
28845;DHT22;15976;47.938;7.758;2023-06-14T06:04:50;18.50;42.10
28845;DHT22;15976;47.938;7.758;2023-06-14T06:07:23;18.60;41.50
28845;DHT22;15976;47.938;7.758;2023-06-14T06:09:57;18.70;40.90
28845;DHT22;15976;47.938;7.758;2023-06-14T06:12:31;18.70;40.70
28845;DHT22;15976;47.938;7.758;2023-06-14T06:15:15;18.80;40.70
28845;DHT22;15976;47.938;7.758;2023-06-14T06:17:51;18.90;40.90
28845;DHT22;15976;47.938;7.758;2023-06-14T06:20:34;19.00;40.60
28845;DHT22;15976;47.938;7.758;2023-06-14T06:23:09;19.10;40.90
28845;DHT22;15976;47.938;7.758;2023-06-14T06:25:44;19.20;41.30
28845;DHT22;15976;47.938;7.758;2023-06-14T06:28:17;19.30;41.50
28845;DHT22;15976;47.938;7.758;2023-06-14T06:31:15;19.40;41.80
28845;DHT22;15976;47.938;7.758;2023-06-14T06:33:48;19.50;42.70
28845;DHT22;15976;47.938;7.758;2023-06-14T06:36:16;19.60;42.10
28845;DHT22;15976;47.938;7.758;2023-06-14T06:38:44;19.70;42.20
28845;DHT22;15976;47.938;7.758;2023-06-14T06:41:23;19.90;42.50
28845;DHT22;15976;47.938;7.758;2023-06-14T06:43:56;20.00;42.20
28845;DHT22;15976;47.938;7.758;2023-06-14T06:46:32;20.10;42.10
28845;DHT22;15976;47.938;7.758;2023-06-14T06:49:13;20.30;42.00
28845;DHT22;15976;47.938;7.758;2023-06-14T06:52:06;20.40;41.80
28845;DHT22;15976;47.938;7.758;2023-06-14T06:54:39;20.50;41.60
28845;DHT22;15976;47.938;7.758;2023-06-14T06:57:22;20.60;41.40
28845;DHT22;15976;47.938;7.758;2023-06-14T07:00:24;20.70;41.20
28845;DHT22;15976;47.938;7.758;2023-06-14T07:03:03;20.90;41.10
28845;DHT22;15976;47.938;7.758;2023-06-14T07:05:41;21.00;41.10
28845;DHT22;15976;47.938;7.758;2023-06-14T07:08:35;21.10;41.10
28845;DHT22;15976;47.938;7.758;2023-06-14T07:11:29;21.20;41.00
28845;DHT22;15976;47.938;7.758;2023-06-14T07:14:00;21.40;40.90
28845;DHT22;15976;47.938;7.758;2023-06-14T07:16:49;21.60;40.70
28845;DHT22;15976;47.938;7.758;2023-06-14T07:19:29;21.70;40.40
28845;DHT22;15976;47.938;7.758;2023-06-14T07:22:04;21.90;40.90
28845;DHT22;15976;47.938;7.758;2023-06-14T07:24:36;22.00;40.60
28845;DHT22;15976;47.938;7.758;2023-06-14T07:27:24;22.20;40.30
28845;DHT22;15976;47.938;7.758;2023-06-14T07:30:09;22.40;39.90
28845;DHT22;15976;47.938;7.758;2023-06-14T07:32:47;22.50;39.70
28845;DHT22;15976;47.938;7.758;2023-06-14T07:35:32;22.70;39.40
28845;DHT22;15976;47.938;7.758;2023-06-14T07:38:08;22.90;39.30
28845;DHT22;15976;47.938;7.758;2023-06-14T07:40:47;23.10;38.70
28845;DHT22;15976;47.938;7.758;2023-06-14T07:43:32;23.40;38.30
28845;DHT22;15976;47.938;7.758;2023-06-14T07:46:14;23.70;37.90
28845;DHT22;15976;47.938;7.758;2023-06-14T07:48:48;24.00;37.30
28845;DHT22;15976;47.938;7.758;2023-06-14T07:51:22;24.30;36.20
28845;DHT22;15976;47.938;7.758;2023-06-14T07:53:59;24.70;35.60
28845;DHT22;15976;47.938;7.758;2023-06-14T07:56:28;25.00;34.60
28845;DHT22;15976;47.938;7.758;2023-06-14T07:59:14;25.30;33.90
28845;DHT22;15976;47.938;7.758;2023-06-14T08:01:50;25.70;33.20
28845;DHT22;15976;47.938;7.758;2023-06-14T08:04:38;26.10;32.40
28845;DHT22;15976;47.938;7.758;2023-06-14T08:07:16;26.40;31.70
28845;DHT22;15976;47.938;7.758;2023-06-14T08:10:00;26.70;31.20
28845;DHT22;15976;47.938;7.758;2023-06-14T08:12:46;27.10;30.70
28845;DHT22;15976;47.938;7.758;2023-06-14T08:15:46;27.40;30.30
28845;DHT22;15976;47.938;7.758;2023-06-14T08:18:26;27.70;29.70
28845;DHT22;15976;47.938;7.758;2023-06-14T08:21:00;28.00;29.10
28845;DHT22;15976;47.938;7.758;2023-06-14T08:23:41;28.30;28.60
28845;DHT22;15976;47.938;7.758;2023-06-14T08:26:25;28.50;28.40
28845;DHT22;15976;47.938;7.758;2023-06-14T08:29:01;28.70;27.90
28845;DHT22;15976;47.938;7.758;2023-06-14T08:31:44;28.90;27.70
28845;DHT22;15976;47.938;7.758;2023-06-14T08:34:23;29.20;27.60
28845;DHT22;15976;47.938;7.758;2023-06-14T08:37:00;29.40;27.40
28845;DHT22;15976;47.938;7.758;2023-06-14T08:39:58;29.50;27.60
28845;DHT22;15976;47.938;7.758;2023-06-14T08:42:31;29.90;27.60
28845;DHT22;15976;47.938;7.758;2023-06-14T08:45:00;30.20;27.50
28845;DHT22;15976;47.938;7.758;2023-06-14T08:47:35;30.50;27.30
28845;DHT22;15976;47.938;7.758;2023-06-14T08:50:14;30.80;27.10
28845;DHT22;15976;47.938;7.758;2023-06-14T08:53:04;31.00;26.80
28845;DHT22;15976;47.938;7.758;2023-06-14T08:55:35;31.40;26.50
28845;DHT22;15976;47.938;7.758;2023-06-14T08:58:12;31.70;26.30
28845;DHT22;15976;47.938;7.758;2023-06-14T09:00:49;31.90;26.20
28845;DHT22;15976;47.938;7.758;2023-06-14T09:03:32;32.20;25.80
28845;DHT22;15976;47.938;7.758;2023-06-14T09:06:32;32.50;25.70
28845;DHT22;15976;47.938;7.758;2023-06-14T09:09:16;32.80;25.30
28845;DHT22;15976;47.938;7.758;2023-06-14T09:11:56;32.90;24.90
28845;DHT22;15976;47.938;7.758;2023-06-14T09:14:41;33.20;24.70
28845;DHT22;15976;47.938;7.758;2023-06-14T09:17:26;33.50;24.40
28845;DHT22;15976;47.938;7.758;2023-06-14T09:20:02;33.90;24.30
28845;DHT22;15976;47.938;7.758;2023-06-14T09:22:47;34.20;24.10
28845;DHT22;15976;47.938;7.758;2023-06-14T09:25:23;34.50;23.90
28845;DHT22;15976;47.938;7.758;2023-06-14T09:28:09;34.80;23.70
28845;DHT22;15976;47.938;7.758;2023-06-14T09:31:10;35.20;23.40
28845;DHT22;15976;47.938;7.758;2023-06-14T09:33:43;35.20;22.90
28845;DHT22;15976;47.938;7.758;2023-06-14T09:36:32;35.30;23.00
28845;DHT22;15976;47.938;7.758;2023-06-14T09:39:05;35.50;22.60
28845;DHT22;15976;47.938;7.758;2023-06-14T09:41:44;35.80;22.30
28845;DHT22;15976;47.938;7.758;2023-06-14T09:44:28;36.20;21.90
28845;DHT22;15976;47.938;7.758;2023-06-14T09:47:05;36.40;21.40
28845;DHT22;15976;47.938;7.758;2023-06-14T09:49:45;36.50;21.40
28845;DHT22;15976;47.938;7.758;2023-06-14T09:52:31;36.60;21.10
28845;DHT22;15976;47.938;7.758;2023-06-14T09:55:12;36.90;21.00
28845;DHT22;15976;47.938;7.758;2023-06-14T09:57:45;37.10;20.90
28845;DHT22;15976;47.938;7.758;2023-06-14T10:00:29;37.50;21.00
28845;DHT22;15976;47.938;7.758;2023-06-14T10:03:29;37.80;20.90
28845;DHT22;15976;47.938;7.758;2023-06-14T10:06:29;38.10;20.30
28845;DHT22;15976;47.938;7.758;2023-06-14T10:09:10;38.40;19.90
28845;DHT22;15976;47.938;7.758;2023-06-14T10:12:10;38.40;19.70
28845;DHT22;15976;47.938;7.758;2023-06-14T10:15:07;38.60;19.50
28845;DHT22;15976;47.938;7.758;2023-06-14T10:18:02;39.20;19.40
28845;DHT22;15976;47.938;7.758;2023-06-14T10:20:53;39.60;19.10
28845;DHT22;15976;47.938;7.758;2023-06-14T10:23:38;40.10;18.90
28845;DHT22;15976;47.938;7.758;2023-06-14T10:26:23;40.30;18.70
28845;DHT22;15976;47.938;7.758;2023-06-14T10:29:01;40.50;18.30
28845;DHT22;15976;47.938;7.758;2023-06-14T10:31:48;40.70;17.70
28845;DHT22;15976;47.938;7.758;2023-06-14T10:34:30;40.80;17.40
28845;DHT22;15976;47.938;7.758;2023-06-14T10:37:14;41.00;17.10
28845;DHT22;15976;47.938;7.758;2023-06-14T10:39:52;41.10;17.00
28845;DHT22;15976;47.938;7.758;2023-06-14T10:42:35;41.10;16.90
28845;DHT22;15976;47.938;7.758;2023-06-14T10:45:17;41.50;16.80
28845;DHT22;15976;47.938;7.758;2023-06-14T10:47:50;41.60;16.60
28845;DHT22;15976;47.938;7.758;2023-06-14T10:50:36;41.60;16.90
28845;DHT22;15976;47.938;7.758;2023-06-14T10:53:26;41.80;16.50
28845;DHT22;15976;47.938;7.758;2023-06-14T10:56:29;41.90;16.40
28845;DHT22;15976;47.938;7.758;2023-06-14T10:59:02;42.20;16.40
28845;DHT22;15976;47.938;7.758;2023-06-14T11:04:55;42.80;16.00
28845;DHT22;15976;47.938;7.758;2023-06-14T11:10:46;43.10;15.80
28845;DHT22;15976;47.938;7.758;2023-06-14T11:13:19;43.10;15.70
28845;DHT22;15976;47.938;7.758;2023-06-14T11:16:15;43.20;15.90
28845;DHT22;15976;47.938;7.758;2023-06-14T11:19:09;43.50;15.60
28845;DHT22;15976;47.938;7.758;2023-06-14T11:21:59;43.50;15.40
28845;DHT22;15976;47.938;7.758;2023-06-14T11:24:46;43.70;15.40
28845;DHT22;15976;47.938;7.758;2023-06-14T11:27:30;43.70;15.10
28845;DHT22;15976;47.938;7.758;2023-06-14T11:30:16;43.70;15.10
28845;DHT22;15976;47.938;7.758;2023-06-14T11:32:49;43.80;15.40
28845;DHT22;15976;47.938;7.758;2023-06-14T11:35:29;43.90;15.00
28845;DHT22;15976;47.938;7.758;2023-06-14T11:37:58;43.70;15.00
28845;DHT22;15976;47.938;7.758;2023-06-14T11:40:34;43.90;15.20
28845;DHT22;15976;47.938;7.758;2023-06-14T11:43:13;44.10;15.00
28845;DHT22;15976;47.938;7.758;2023-06-14T11:45:53;44.10;15.10
28845;DHT22;15976;47.938;7.758;2023-06-14T11:48:40;44.10;14.90
28845;DHT22;15976;47.938;7.758;2023-06-14T11:51:32;44.20;15.40
28845;DHT22;15976;47.938;7.758;2023-06-14T11:54:08;44.50;14.70
28845;DHT22;15976;47.938;7.758;2023-06-14T11:56:49;44.70;14.60
28845;DHT22;15976;47.938;7.758;2023-06-14T11:59:31;45.10;14.40
28845;DHT22;15976;47.938;7.758;2023-06-14T12:02:13;45.00;14.30
28845;DHT22;15976;47.938;7.758;2023-06-14T12:05:06;45.20;14.40
28845;DHT22;15976;47.938;7.758;2023-06-14T12:07:40;45.40;14.40
28845;DHT22;15976;47.938;7.758;2023-06-14T12:10:31;45.60;14.30
28845;DHT22;15976;47.938;7.758;2023-06-14T12:13:19;45.50;14.20
28845;DHT22;15976;47.938;7.758;2023-06-14T12:16:07;45.30;14.40
28845;DHT22;15976;47.938;7.758;2023-06-14T12:18:52;45.50;14.50
28845;DHT22;15976;47.938;7.758;2023-06-14T12:21:46;45.80;14.40
28845;DHT22;15976;47.938;7.758;2023-06-14T12:24:31;46.10;14.40
28845;DHT22;15976;47.938;7.758;2023-06-14T12:27:15;46.20;14.10
28845;DHT22;15976;47.938;7.758;2023-06-14T12:30:03;46.00;14.10
28845;DHT22;15976;47.938;7.758;2023-06-14T12:32:44;46.20;14.30
28845;DHT22;15976;47.938;7.758;2023-06-14T12:35:15;45.90;14.10
28845;DHT22;15976;47.938;7.758;2023-06-14T12:38:04;45.60;14.20
28845;DHT22;15976;47.938;7.758;2023-06-14T12:40:39;45.30;14.30
28845;DHT22;15976;47.938;7.758;2023-06-14T12:43:19;45.20;14.30
28845;DHT22;15976;47.938;7.758;2023-06-14T12:45:52;45.40;14.40
28845;DHT22;15976;47.938;7.758;2023-06-14T12:48:49;45.40;14.80
28845;DHT22;15976;47.938;7.758;2023-06-14T12:51:30;45.40;14.40
28845;DHT22;15976;47.938;7.758;2023-06-14T12:54:18;45.50;14.40
28845;DHT22;15976;47.938;7.758;2023-06-14T12:57:14;45.70;14.40
28845;DHT22;15976;47.938;7.758;2023-06-14T12:59:50;45.80;14.10
28845;DHT22;15976;47.938;7.758;2023-06-14T13:02:34;45.80;14.10
28845;DHT22;15976;47.938;7.758;2023-06-14T13:05:48;45.70;14.20
28845;DHT22;15976;47.938;7.758;2023-06-14T13:08:32;45.80;14.20
28845;DHT22;15976;47.938;7.758;2023-06-14T13:11:36;45.70;14.20
28845;DHT22;15976;47.938;7.758;2023-06-14T13:14:38;45.70;14.30
28845;DHT22;15976;47.938;7.758;2023-06-14T13:17:17;45.90;14.20
28845;DHT22;15976;47.938;7.758;2023-06-14T13:19:56;45.90;14.40
28845;DHT22;15976;47.938;7.758;2023-06-14T13:22:42;46.10;14.20
28845;DHT22;15976;47.938;7.758;2023-06-14T13:25:20;45.60;14.20
28845;DHT22;15976;47.938;7.758;2023-06-14T13:27:49;45.30;14.30
28845;DHT22;15976;47.938;7.758;2023-06-14T13:30:25;45.20;14.40
28845;DHT22;15976;47.938;7.758;2023-06-14T13:32:58;45.30;14.40
28845;DHT22;15976;47.938;7.758;2023-06-14T13:35:43;45.40;14.40
28845;DHT22;15976;47.938;7.758;2023-06-14T13:38:15;45.50;14.50
28845;DHT22;15976;47.938;7.758;2023-06-14T13:40:46;45.50;14.40
28845;DHT22;15976;47.938;7.758;2023-06-14T13:43:20;45.40;14.40
28845;DHT22;15976;47.938;7.758;2023-06-14T13:45:55;45.40;14.50
28845;DHT22;15976;47.938;7.758;2023-06-14T13:48:41;45.30;14.60
28845;DHT22;15976;47.938;7.758;2023-06-14T13:51:18;45.00;14.70
28845;DHT22;15976;47.938;7.758;2023-06-14T13:53:56;44.70;14.60
28845;DHT22;15976;47.938;7.758;2023-06-14T13:56:31;44.50;14.80
28845;DHT22;15976;47.938;7.758;2023-06-14T13:59:07;44.50;14.80
28845;DHT22;15976;47.938;7.758;2023-06-14T14:01:45;44.50;14.80
28845;DHT22;15976;47.938;7.758;2023-06-14T14:04:27;44.50;14.80
28845;DHT22;15976;47.938;7.758;2023-06-14T14:07:03;44.30;14.90
28845;DHT22;15976;47.938;7.758;2023-06-14T14:09:43;44.30;14.90
28845;DHT22;15976;47.938;7.758;2023-06-14T14:12:21;44.30;15.00
28845;DHT22;15976;47.938;7.758;2023-06-14T14:15:05;44.40;14.90
28845;DHT22;15976;47.938;7.758;2023-06-14T14:17:45;44.20;14.80
28845;DHT22;15976;47.938;7.758;2023-06-14T14:20:37;43.80;14.90
28845;DHT22;15976;47.938;7.758;2023-06-14T14:23:07;43.90;15.10
28845;DHT22;15976;47.938;7.758;2023-06-14T14:25:52;44.00;15.10
28845;DHT22;15976;47.938;7.758;2023-06-14T14:28:25;43.90;15.10
28845;DHT22;15976;47.938;7.758;2023-06-14T14:31:21;43.80;15.20
28845;DHT22;15976;47.938;7.758;2023-06-14T14:34:09;43.50;15.20
28845;DHT22;15976;47.938;7.758;2023-06-14T14:37:02;43.50;15.20
28845;DHT22;15976;47.938;7.758;2023-06-14T14:39:42;43.40;15.20
28845;DHT22;15976;47.938;7.758;2023-06-14T14:42:27;43.30;15.20
28845;DHT22;15976;47.938;7.758;2023-06-14T14:45:00;43.10;15.10
28845;DHT22;15976;47.938;7.758;2023-06-14T14:47:48;42.90;15.30
28845;DHT22;15976;47.938;7.758;2023-06-14T14:50:18;42.60;15.50
28845;DHT22;15976;47.938;7.758;2023-06-14T14:52:49;42.40;15.50
28845;DHT22;15976;47.938;7.758;2023-06-14T14:55:30;42.20;15.70
28845;DHT22;15976;47.938;7.758;2023-06-14T14:58:16;42.00;15.70
28845;DHT22;15976;47.938;7.758;2023-06-14T15:00:58;42.00;15.90
28845;DHT22;15976;47.938;7.758;2023-06-14T15:03:36;41.90;15.90
28845;DHT22;15976;47.938;7.758;2023-06-14T15:06:27;41.60;16.20
28845;DHT22;15976;47.938;7.758;2023-06-14T15:09:14;41.20;16.30
28845;DHT22;15976;47.938;7.758;2023-06-14T15:11:50;40.70;16.60
28845;DHT22;15976;47.938;7.758;2023-06-14T15:14:35;39.80;17.00
28845;DHT22;15976;47.938;7.758;2023-06-14T15:17:09;38.60;17.70
28845;DHT22;15976;47.938;7.758;2023-06-14T15:19:44;37.40;18.20
28845;DHT22;15976;47.938;7.758;2023-06-14T15:22:27;36.50;19.20
28845;DHT22;15976;47.938;7.758;2023-06-14T15:24:56;35.70;19.70
28845;DHT22;15976;47.938;7.758;2023-06-14T15:27:38;35.10;20.20
28845;DHT22;15976;47.938;7.758;2023-06-14T15:30:22;34.40;20.60
28845;DHT22;15976;47.938;7.758;2023-06-14T15:32:54;33.90;21.00
28845;DHT22;15976;47.938;7.758;2023-06-14T15:35:24;33.60;21.50
28845;DHT22;15976;47.938;7.758;2023-06-14T15:38:01;33.40;21.80
28845;DHT22;15976;47.938;7.758;2023-06-14T15:40:35;33.00;22.00
28845;DHT22;15976;47.938;7.758;2023-06-14T15:43:07;32.60;22.20
28845;DHT22;15976;47.938;7.758;2023-06-14T15:45:42;32.20;22.50
28845;DHT22;15976;47.938;7.758;2023-06-14T15:48:14;31.90;22.70
28845;DHT22;15976;47.938;7.758;2023-06-14T15:50:48;31.70;22.90
28845;DHT22;15976;47.938;7.758;2023-06-14T15:53:23;31.50;23.00
28845;DHT22;15976;47.938;7.758;2023-06-14T15:56:15;31.30;23.30
28845;DHT22;15976;47.938;7.758;2023-06-14T15:59:03;31.20;23.50
28845;DHT22;15976;47.938;7.758;2023-06-14T16:01:42;31.00;23.50
28845;DHT22;15976;47.938;7.758;2023-06-14T16:04:41;30.80;23.60
28845;DHT22;15976;47.938;7.758;2023-06-14T16:07:28;30.70;24.40
28845;DHT22;15976;47.938;7.758;2023-06-14T16:10:24;30.60;24.10
28845;DHT22;15976;47.938;7.758;2023-06-14T16:13:09;30.50;24.10
28845;DHT22;15976;47.938;7.758;2023-06-14T16:15:52;30.30;24.00
28845;DHT22;15976;47.938;7.758;2023-06-14T16:18:31;30.30;24.10
28845;DHT22;15976;47.938;7.758;2023-06-14T16:21:07;30.20;24.30
28845;DHT22;15976;47.938;7.758;2023-06-14T16:23:48;30.10;24.40
28845;DHT22;15976;47.938;7.758;2023-06-14T16:26:43;30.00;24.50
28845;DHT22;15976;47.938;7.758;2023-06-14T16:29:27;30.00;24.60
28845;DHT22;15976;47.938;7.758;2023-06-14T16:32:13;29.90;24.70
28845;DHT22;15976;47.938;7.758;2023-06-14T16:34:59;29.80;24.70
28845;DHT22;15976;47.938;7.758;2023-06-14T16:37:43;29.60;24.80
28845;DHT22;15976;47.938;7.758;2023-06-14T16:40:18;29.60;25.00
28845;DHT22;15976;47.938;7.758;2023-06-14T16:42:49;29.50;25.00
28845;DHT22;15976;47.938;7.758;2023-06-14T16:45:21;29.40;25.30
28845;DHT22;15976;47.938;7.758;2023-06-14T16:47:57;29.40;25.50
28845;DHT22;15976;47.938;7.758;2023-06-14T16:50:30;29.40;25.40
28845;DHT22;15976;47.938;7.758;2023-06-14T16:53:34;29.30;25.40
28845;DHT22;15976;47.938;7.758;2023-06-14T16:56:13;29.10;25.50
28845;DHT22;15976;47.938;7.758;2023-06-14T16:58:48;29.00;25.70
28845;DHT22;15976;47.938;7.758;2023-06-14T17:01:22;29.00;25.90
28845;DHT22;15976;47.938;7.758;2023-06-14T17:04:04;28.90;26.00
28845;DHT22;15976;47.938;7.758;2023-06-14T17:06:59;28.90;26.10
28845;DHT22;15976;47.938;7.758;2023-06-14T17:09:45;28.80;26.20
28845;DHT22;15976;47.938;7.758;2023-06-14T17:12:42;28.70;26.20